Logo AVAMET
Benvolgut visitant, si us plau, ingressa Recuperar contrasenya

Inforatge Piles

Dades diàries. Acumulats / Últims 30 dies disponibles

Data Temperatura (°C) Humitat rel. (%) Pressió rel. (hPa) Vent (km/h) Precipitació
Mínima Mitjana Màxima Amplitud
tèrmica
Mínima Mitjana Màxima Mínima Mitjana Màxima Predom. Mitjana Ràfega
màxima
Total
(mm)
Índex-n
Mínima Mitjana Màxima Mínima Mitjana Màxima n
0 a 1
P0 max
mm 5'
Dades mensuals acumulades fins l'últim dia disponible
05/2019 10,9 15,3 21,9 19,0 17,7 23,8 31,2 20,3 32 72 97 1.005 1.018 1.028   8,4 51,9 6,0
Dades anuals acumulades fins l'últim dia disponible
2019 3,3 10,9 21,9 14,7 10,7 19,0 31,2 27,9 15 65 99 997 1.022 1.039   8,6 75,9 241,6
Últims 30 dies disponibles
24-05-2019 16,4     18,3     19,8 3,4 71 84 93 1.017 1.018 1.019 SSO 4,8 33,9 2,2
23-05-2019 16,3     20,8     28,6 12,3 34 72 87 1.016 1.020 1.022 SSE 6,0 24,1 0,0
22-05-2019 15,3     19,0     25,5 10,2 58 81 89 1.019 1.021 1.023 S 6,9 29,6 0,0
21-05-2019 16,8     18,6     24,8 8,0 47 81 90 1.017 1.019 1.021 S 7,2 50,0 2,0
20-05-2019 13,7     18,7     23,2 9,5 50 64 80 1.015 1.016 1.018 SSE 11,8 43,5 0,0
19-05-2019 13,8     18,0     22,5 8,7 34 69 85 1.013 1.014 1.016 S 7,1 38,9 0,0
18-05-2019 14,4     17,0     19,1 4,7 45 65 84 1.012 1.013 1.014 SSE 8,6 33,9 0,0
17-05-2019 16,5     20,8     25,1 8,6 32 50 85 1.005 1.009 1.013 O 11,9 51,9 0,0
16-05-2019 16,9     19,1     23,4 6,5 63 77 85 1.008 1.014 1.019 SSE 10,2 48,2 0,0
15-05-2019 14,6     18,6     21,4 6,8 56 80 86 1.015 1.016 1.019 ESE 9,4 24,1 0,0
14-05-2019 14,1     19,8     28,9 14,8 32 64 82 1.016 1.022 1.025 SSE 8,3 37,0 0,0
13-05-2019 15,3     18,7     22,2 6,9 39 73 88 1.022 1.024 1.025 SSE 7,8 27,8 0,0
12-05-2019 15,8     19,5     23,6 7,8 58 78 92 1.022 1.026 1.028 SE 8,9 38,9 0,0
11-05-2019 18,2     20,7     25,7 7,5 46 74 86 1.018 1.022 1.027 SE 5,7 27,8 0,0
10-05-2019 21,9     26,0     31,2 9,3 37 54 66 1.015 1.016 1.018 SSO 9,9 37,0 0,0
09-05-2019 20,9     24,7     29,8 8,9 41 53 67 1.014 1.016 1.018 OSO 9,3 32,2 0,0
08-05-2019 14,8     22,9     30,2 15,4 35 63 97 1.013 1.015 1.018 SO 10,4 40,7 0,0
07-05-2019 15,6     19,2     26,4 10,8 51 79 91 1.016 1.020 1.023 SE 5,7 33,9 0,0
06-05-2019 12,2     16,1     21,6 9,4 71 82 88 1.020 1.022 1.023 SSO 7,1 27,8 0,0
05-05-2019 12,8     16,2     19,8 7,0 52 71 87 1.015 1.018 1.021 S 11,0 45,0 0,0
04-05-2019 10,9     15,8     21,7 10,8 50 70 92 1.013 1.016 1.018 S 10,4 35,4 0,0
03-05-2019 12,1     14,6     17,7 5,6 71 81 93 1.014 1.016 1.019 SSE 9,8 37,0 1,4 0,36 0,60
02-05-2019 14,4     16,1     18,0 3,6 68 83 91 1.017 1.019 1.021 SSE 5,5 24,1 0,2
01-05-2019 13,7     17,0     21,3 7,6 47 79 93 1.016 1.018 1.020 SSE 8,0 38,9 0,2
30-04-2019 15,3     17,7     21,8 6,5 62 79 91 1.018 1.020 1.022 SE 9,2 40,7 0,0
29-04-2019 13,7     16,4     20,2 6,5 71 82 90 1.020 1.022 1.024 S 9,7 43,5 0,0
28-04-2019 12,7     16,6     21,1 8,4 59 77 90 1.022 1.026 1.028 SSO 6,6 27,8 0,0
27-04-2019 13,3     17,3     22,8 9,5 45 62 85 1.026 1.029 1.030 SSE 7,0 25,9 0,0
26-04-2019 12,6     17,6     21,9 9,3 38 52 68 1.022 1.025 1.028 SSO 10,6 31,5 0,0
25-04-2019 15,1     18,8     22,3 7,2 41 57 73 1.013 1.016 1.022 OSO 7,1 33,9 0,0
Últims 13 mesos disponibles
04/2019 8,7 12,4 15,3 15,8 14,8 19,6 28,2 19,5 42 70 94 1.003 1.016 1.029 S 10,0 69,3 191,8
03/2019 8,1 10,4 15,0 14,8 11,8 19,1 28,4 20,3 32 64 92 1.015 1.026 1.033 S 7,7 46,7 41,8
02/2019 5,8 8,8 11,9 12,7 12,9 16,8 22,4 16,6 35 65 83 999 1.028 1.037 SSO 7,9 75,9 0,0
01/2019 3,3 8,6 13,8 12,2 10,7 16,5 21,1 17,8 42 58 77 1.006 1.022 1.034 SSO 8,7 64,8 2,0
12/2018 7,2 10,4 14,7 14,0 14,4 18,3 24,4 17,2 53 69 88 1.012 1.028 1.034 SSO 7,1 48,3 22,8
11/2018 9,1 12,5 16,2 15,4 16,2 18,8 22,3 13,2 50 72 94 1.004 1.019 1.027 SO 6,9 69,3 214,6
10/2018 8,8 16,1 21,1 19,1 15,3 22,7 29,3 20,5 45 74 89 1.003 1.018 1.029 S 7,1 53,7 154,8
09/2018 17,2 21,2 24,7 24,2 24,4 27,6 31,6 14,4 63 80 89 1.016 1.022 1.031 7,0 70,9 104,4
08/2018 19,8 24,0 26,2 27,0 25,8 30,4 37,3 17,5 52 75 87 1.015 1.020 1.025 8,9 51,9 83,6
07/2018 22,1 23,7 26,4 26,9 26,3 31,2 37,2 15,1 36 72 85 1.013 1.018 1.023 9,3 50,0 2,4
06/2018 15,4 20,0 23,2 23,5 22,2 27,4 32,7 17,3 50 69 84 1.013 1.018 1.024 8,8 45,0 49,0
Tots els anys disponibles
Temperatura (°C)
Humitat relativa (%)
Velocitat del vent i ràfega màxima (km/h)
Direcció del vent (°)
Pressió (hPa)
Precipitació (mm)
Nota sobre les dades: s'avisa a l'usuari de la provisionalitat i no oficialitat d'aquestes dades
Logo AVAMET blanc
Web allotjada a Sollutia
Llicència de Creative CommonsLa web d'AVAMET i els seus continguts estan subjectes a una llicència de
Reconeixement - No Comercial - Compartir igual
Properes estacions: Altea - Club Nàutic d'Altea (Soci), Ontinyent - El Pilar (Soci), Ares del Maestrat (Ajuntament Soci), Catadau - L'Altet (Inforatge)     - - - - -      Últimes estacions: Asp - Poliesportiu (Soci), Jacarilla - centro (MeteOrihuela), Elx - Maitino/Vallverda/Velarde/Matola/Ferriol (Soci TiempoElche.com), Orihuela - Playa Flamenca (MeteOrihuela), - - -